sensor_id;sensor_type;location;lat;lon;timestamp;P1;durP1;ratioP1;P2;durP2;ratioP2
10637;SDS011;47007;49.252;8.904;2023-05-10T00:00:35;0.93;;;0.22;;
10637;SDS011;47007;49.252;8.904;2023-05-10T00:01:17;0.50;;;0.30;;
10637;SDS011;47007;49.252;8.904;2023-05-10T00:01:59;0.22;;;0.20;;
10637;SDS011;47007;49.252;8.904;2023-05-10T00:02:41;0.25;;;0.20;;
10637;SDS011;47007;49.252;8.904;2023-05-10T00:03:22;0.45;;;0.20;;
10637;SDS011;47007;49.252;8.904;2023-05-10T00:04:04;0.93;;;0.25;;
10637;SDS011;47007;49.252;8.904;2023-05-10T00:04:46;1.58;;;0.20;;
10637;SDS011;47007;49.252;8.904;2023-05-10T00:05:28;0.22;;;0.22;;
10637;SDS011;47007;49.252;8.904;2023-05-10T00:06:10;0.20;;;0.20;;
10637;SDS011;47007;49.252;8.904;2023-05-10T00:06:51;0.30;;;0.30;;
10637;SDS011;47007;49.252;8.904;2023-05-10T00:07:35;1.42;;;0.30;;
10637;SDS011;47007;49.252;8.904;2023-05-10T00:08:17;0.55;;;0.30;;
10637;SDS011;47007;49.252;8.904;2023-05-10T00:08:58;0.82;;;0.30;;
10637;SDS011;47007;49.252;8.904;2023-05-10T00:09:40;1.40;;;0.30;;
10637;SDS011;47007;49.252;8.904;2023-05-10T00:10:22;0.40;;;0.28;;
10637;SDS011;47007;49.252;8.904;2023-05-10T00:11:04;0.20;;;0.20;;
10637;SDS011;47007;49.252;8.904;2023-05-10T00:11:45;0.98;;;0.30;;
10637;SDS011;47007;49.252;8.904;2023-05-10T00:12:27;1.02;;;0.10;;
10637;SDS011;47007;49.252;8.904;2023-05-10T00:13:09;0.20;;;0.20;;
10637;SDS011;47007;49.252;8.904;2023-05-10T00:13:52;0.85;;;0.30;;
10637;SDS011;47007;49.252;8.904;2023-05-10T00:14:34;0.30;;;0.30;;
10637;SDS011;47007;49.252;8.904;2023-05-10T00:15:16;0.57;;;0.30;;
10637;SDS011;47007;49.252;8.904;2023-05-10T00:15:58;0.30;;;0.30;;
10637;SDS011;47007;49.252;8.904;2023-05-10T00:16:40;0.70;;;0.30;;
10637;SDS011;47007;49.252;8.904;2023-05-10T00:17:22;0.28;;;0.28;;
10637;SDS011;47007;49.252;8.904;2023-05-10T00:18:04;0.30;;;0.30;;
10637;SDS011;47007;49.252;8.904;2023-05-10T00:18:46;0.80;;;0.20;;
10637;SDS011;47007;49.252;8.904;2023-05-10T00:19:27;0.30;;;0.28;;
10637;SDS011;47007;49.252;8.904;2023-05-10T00:20:09;0.90;;;0.30;;
10637;SDS011;47007;49.252;8.904;2023-05-10T00:20:51;0.55;;;0.30;;
10637;SDS011;47007;49.252;8.904;2023-05-10T00:21:33;0.30;;;0.28;;
10637;SDS011;47007;49.252;8.904;2023-05-10T00:22:15;0.73;;;0.20;;
10637;SDS011;47007;49.252;8.904;2023-05-10T00:22:57;0.30;;;0.30;;
10637;SDS011;47007;49.252;8.904;2023-05-10T00:23:38;0.30;;;0.30;;
10637;SDS011;47007;49.252;8.904;2023-05-10T00:24:23;0.28;;;0.28;;
10637;SDS011;47007;49.252;8.904;2023-05-10T00:25:05;0.20;;;0.20;;
10637;SDS011;47007;49.252;8.904;2023-05-10T00:25:47;0.75;;;0.20;;
10637;SDS011;47007;49.252;8.904;2023-05-10T00:26:29;0.20;;;0.20;;
10637;SDS011;47007;49.252;8.904;2023-05-10T00:27:11;0.20;;;0.20;;
10637;SDS011;47007;49.252;8.904;2023-05-10T00:27:52;0.57;;;0.30;;
10637;SDS011;47007;49.252;8.904;2023-05-10T00:28:36;1.38;;;0.20;;
10637;SDS011;47007;49.252;8.904;2023-05-10T00:29:18;0.20;;;0.20;;
10637;SDS011;47007;49.252;8.904;2023-05-10T00:29:59;0.20;;;0.20;;
10637;SDS011;47007;49.252;8.904;2023-05-10T00:30:43;1.83;;;0.20;;
10637;SDS011;47007;49.252;8.904;2023-05-10T00:31:25;1.15;;;0.28;;
10637;SDS011;47007;49.252;8.904;2023-05-10T00:32:07;0.20;;;0.20;;
10637;SDS011;47007;49.252;8.904;2023-05-10T00:32:49;0.30;;;0.20;;
10637;SDS011;47007;49.252;8.904;2023-05-10T00:33:33;0.28;;;0.25;;
10637;SDS011;47007;49.252;8.904;2023-05-10T00:34:14;0.20;;;0.20;;
10637;SDS011;47007;49.252;8.904;2023-05-10T00:34:56;0.25;;;0.20;;
10637;SDS011;47007;49.252;8.904;2023-05-10T00:35:38;0.20;;;0.20;;
10637;SDS011;47007;49.252;8.904;2023-05-10T00:36:20;0.77;;;0.20;;
10637;SDS011;47007;49.252;8.904;2023-05-10T00:37:02;0.30;;;0.25;;
10637;SDS011;47007;49.252;8.904;2023-05-10T00:37:44;0.40;;;0.40;;
10637;SDS011;47007;49.252;8.904;2023-05-10T00:38:26;0.20;;;0.20;;
10637;SDS011;47007;49.252;8.904;2023-05-10T00:39:07;0.28;;;0.20;;
10637;SDS011;47007;49.252;8.904;2023-05-10T00:39:49;0.40;;;0.30;;
10637;SDS011;47007;49.252;8.904;2023-05-10T00:40:31;0.30;;;0.30;;
10637;SDS011;47007;49.252;8.904;2023-05-10T00:41:17;0.32;;;0.20;;
10637;SDS011;47007;49.252;8.904;2023-05-10T00:42:00;0.35;;;0.30;;
10637;SDS011;47007;49.252;8.904;2023-05-10T00:42:42;0.47;;;0.22;;
10637;SDS011;47007;49.252;8.904;2023-05-10T00:43:24;0.20;;;0.20;;
10637;SDS011;47007;49.252;8.904;2023-05-10T00:44:05;0.20;;;0.20;;
10637;SDS011;47007;49.252;8.904;2023-05-10T00:44:47;0.30;;;0.30;;
10637;SDS011;47007;49.252;8.904;2023-05-10T00:45:30;0.73;;;0.30;;
10637;SDS011;47007;49.252;8.904;2023-05-10T00:46:14;0.50;;;0.20;;
10637;SDS011;47007;49.252;8.904;2023-05-10T00:46:56;0.40;;;0.20;;
10637;SDS011;47007;49.252;8.904;2023-05-10T00:47:39;0.28;;;0.28;;
10637;SDS011;47007;49.252;8.904;2023-05-10T00:48:21;0.30;;;0.20;;
10637;SDS011;47007;49.252;8.904;2023-05-10T00:49:03;0.20;;;0.20;;
10637;SDS011;47007;49.252;8.904;2023-05-10T00:49:45;1.05;;;0.28;;
10637;SDS011;47007;49.252;8.904;2023-05-10T00:50:27;0.73;;;0.30;;
10637;SDS011;47007;49.252;8.904;2023-05-10T00:51:09;0.30;;;0.30;;
10637;SDS011;47007;49.252;8.904;2023-05-10T00:51:54;1.17;;;0.30;;
10637;SDS011;47007;49.252;8.904;2023-05-10T00:52:38;0.40;;;0.30;;
10637;SDS011;47007;49.252;8.904;2023-05-10T00:53:20;0.50;;;0.30;;
10637;SDS011;47007;49.252;8.904;2023-05-10T00:54:02;0.57;;;0.28;;
10637;SDS011;47007;49.252;8.904;2023-05-10T00:54:44;0.30;;;0.30;;
10637;SDS011;47007;49.252;8.904;2023-05-10T00:55:26;0.20;;;0.20;;
10637;SDS011;47007;49.252;8.904;2023-05-10T00:56:08;0.20;;;0.20;;
10637;SDS011;47007;49.252;8.904;2023-05-10T00:56:50;0.30;;;0.30;;
10637;SDS011;47007;49.252;8.904;2023-05-10T00:57:33;0.30;;;0.30;;
10637;SDS011;47007;49.252;8.904;2023-05-10T00:58:14;0.30;;;0.30;;
10637;SDS011;47007;49.252;8.904;2023-05-10T00:58:57;0.70;;;0.20;;
10637;SDS011;47007;49.252;8.904;2023-05-10T00:59:39;1.00;;;0.40;;
10637;SDS011;47007;49.252;8.904;2023-05-10T01:00:21;0.30;;;0.30;;
10637;SDS011;47007;49.252;8.904;2023-05-10T01:01:03;0.30;;;0.30;;
10637;SDS011;47007;49.252;8.904;2023-05-10T01:02:40;0.30;;;0.30;;
10637;SDS011;47007;49.252;8.904;2023-05-10T01:03:22;0.73;;;0.30;;
10637;SDS011;47007;49.252;8.904;2023-05-10T01:04:04;0.30;;;0.30;;
10637;SDS011;47007;49.252;8.904;2023-05-10T01:04:50;0.40;;;0.30;;
10637;SDS011;47007;49.252;8.904;2023-05-10T01:05:33;1.13;;;0.20;;
10637;SDS011;47007;49.252;8.904;2023-05-10T01:06:18;1.55;;;0.25;;
10637;SDS011;47007;49.252;8.904;2023-05-10T01:06:59;0.30;;;0.30;;
10637;SDS011;47007;49.252;8.904;2023-05-10T01:07:41;1.08;;;0.20;;
10637;SDS011;47007;49.252;8.904;2023-05-10T01:08:24;1.02;;;0.30;;
10637;SDS011;47007;49.252;8.904;2023-05-10T01:09:07;0.20;;;0.20;;
10637;SDS011;47007;49.252;8.904;2023-05-10T01:09:48;0.20;;;0.20;;
10637;SDS011;47007;49.252;8.904;2023-05-10T01:10:30;0.22;;;0.22;;
10637;SDS011;47007;49.252;8.904;2023-05-10T01:11:13;0.30;;;0.30;;
10637;SDS011;47007;49.252;8.904;2023-05-10T01:11:55;0.85;;;0.30;;
10637;SDS011;47007;49.252;8.904;2023-05-10T01:12:38;1.35;;;0.30;;
10637;SDS011;47007;49.252;8.904;2023-05-10T01:13:38;0.20;;;0.20;;
10637;SDS011;47007;49.252;8.904;2023-05-10T01:14:22;0.32;;;0.20;;
10637;SDS011;47007;49.252;8.904;2023-05-10T01:15:09;1.40;;;0.40;;
10637;SDS011;47007;49.252;8.904;2023-05-10T01:15:52;0.88;;;0.30;;
10637;SDS011;47007;49.252;8.904;2023-05-10T01:16:38;0.60;;;0.25;;
10637;SDS011;47007;49.252;8.904;2023-05-10T01:17:23;2.25;;;0.32;;
10637;SDS011;47007;49.252;8.904;2023-05-10T01:18:05;0.90;;;0.22;;
10637;SDS011;47007;49.252;8.904;2023-05-10T01:18:50;1.17;;;0.43;;
10637;SDS011;47007;49.252;8.904;2023-05-10T01:19:34;1.38;;;0.20;;
10637;SDS011;47007;49.252;8.904;2023-05-10T01:20:16;0.57;;;0.30;;
10637;SDS011;47007;49.252;8.904;2023-05-10T01:21:14;0.68;;;0.20;;
10637;SDS011;47007;49.252;8.904;2023-05-10T01:25:11;0.60;;;0.30;;
10637;SDS011;47007;49.252;8.904;2023-05-10T01:34:12;2.13;;;0.40;;
10637;SDS011;47007;49.252;8.904;2023-05-10T01:35:00;1.58;;;0.40;;
10637;SDS011;47007;49.252;8.904;2023-05-10T01:36:03;2.70;;;0.40;;
10637;SDS011;47007;49.252;8.904;2023-05-10T01:37:02;2.72;;;0.50;;
10637;SDS011;47007;49.252;8.904;2023-05-10T01:37:50;0.90;;;0.47;;
10637;SDS011;47007;49.252;8.904;2023-05-10T01:39:51;0.70;;;0.40;;
10637;SDS011;47007;49.252;8.904;2023-05-10T01:40:47;0.52;;;0.43;;
10637;SDS011;47007;49.252;8.904;2023-05-10T01:41:38;0.45;;;0.45;;
10637;SDS011;47007;49.252;8.904;2023-05-10T01:42:31;1.02;;;0.43;;
10637;SDS011;47007;49.252;8.904;2023-05-10T01:43:37;0.63;;;0.52;;
10637;SDS011;47007;49.252;8.904;2023-05-10T01:44:29;0.60;;;0.60;;
10637;SDS011;47007;49.252;8.904;2023-05-10T01:45:23;0.60;;;0.50;;
10637;SDS011;47007;49.252;8.904;2023-05-10T01:46:10;1.17;;;0.50;;
10637;SDS011;47007;49.252;8.904;2023-05-10T01:47:05;0.40;;;0.40;;
10637;SDS011;47007;49.252;8.904;2023-05-10T01:47:54;0.60;;;0.50;;
10637;SDS011;47007;49.252;8.904;2023-05-10T01:48:47;0.40;;;0.40;;
10637;SDS011;47007;49.252;8.904;2023-05-10T01:49:31;0.43;;;0.43;;
10637;SDS011;47007;49.252;8.904;2023-05-10T01:50:18;0.63;;;0.50;;
10637;SDS011;47007;49.252;8.904;2023-05-10T01:51:03;0.75;;;0.55;;
10637;SDS011;47007;49.252;8.904;2023-05-10T01:51:47;0.50;;;0.50;;
10637;SDS011;47007;49.252;8.904;2023-05-10T01:52:33;1.58;;;0.52;;
10637;SDS011;47007;49.252;8.904;2023-05-10T01:53:19;0.50;;;0.50;;
10637;SDS011;47007;49.252;8.904;2023-05-10T01:54:03;0.95;;;0.60;;
10637;SDS011;47007;49.252;8.904;2023-05-10T01:54:53;0.65;;;0.50;;
10637;SDS011;47007;49.252;8.904;2023-05-10T01:55:40;0.60;;;0.60;;
10637;SDS011;47007;49.252;8.904;2023-05-10T01:56:28;0.70;;;0.68;;
10637;SDS011;47007;49.252;8.904;2023-05-10T01:57:12;0.93;;;0.52;;
10637;SDS011;47007;49.252;8.904;2023-05-10T01:57:58;0.60;;;0.60;;
10637;SDS011;47007;49.252;8.904;2023-05-10T01:58:44;0.60;;;0.60;;
10637;SDS011;47007;49.252;8.904;2023-05-10T01:59:30;0.50;;;0.50;;
10637;SDS011;47007;49.252;8.904;2023-05-10T02:00:22;1.52;;;0.60;;
10637;SDS011;47007;49.252;8.904;2023-05-10T02:01:05;1.35;;;0.73;;
10637;SDS011;47007;49.252;8.904;2023-05-10T02:01:49;1.38;;;0.60;;
10637;SDS011;47007;49.252;8.904;2023-05-10T02:02:35;0.47;;;0.47;;
10637;SDS011;47007;49.252;8.904;2023-05-10T02:03:22;0.60;;;0.60;;
10637;SDS011;47007;49.252;8.904;2023-05-10T02:04:08;0.75;;;0.60;;
10637;SDS011;47007;49.252;8.904;2023-05-10T02:04:53;0.60;;;0.60;;
10637;SDS011;47007;49.252;8.904;2023-05-10T02:05:36;0.60;;;0.60;;
10637;SDS011;47007;49.252;8.904;2023-05-10T02:06:20;0.57;;;0.57;;
10637;SDS011;47007;49.252;8.904;2023-05-10T02:07:03;0.50;;;0.50;;
10637;SDS011;47007;49.252;8.904;2023-05-10T02:07:47;0.85;;;0.60;;
10637;SDS011;47007;49.252;8.904;2023-05-10T02:08:30;0.60;;;0.60;;
10637;SDS011;47007;49.252;8.904;2023-05-10T02:09:14;0.50;;;0.50;;
10637;SDS011;47007;49.252;8.904;2023-05-10T02:09:57;1.48;;;0.88;;
10637;SDS011;47007;49.252;8.904;2023-05-10T02:10:40;1.35;;;0.73;;
10637;SDS011;47007;49.252;8.904;2023-05-10T02:11:23;1.95;;;1.00;;
10637;SDS011;47007;49.252;8.904;2023-05-10T02:12:06;1.52;;;0.73;;
10637;SDS011;47007;49.252;8.904;2023-05-10T02:12:49;2.58;;;0.77;;
10637;SDS011;47007;49.252;8.904;2023-05-10T02:13:33;0.93;;;0.93;;
10637;SDS011;47007;49.252;8.904;2023-05-10T02:14:17;1.00;;;0.88;;
10637;SDS011;47007;49.252;8.904;2023-05-10T02:15:02;0.93;;;0.93;;
10637;SDS011;47007;49.252;8.904;2023-05-10T02:15:47;0.70;;;0.70;;
10637;SDS011;47007;49.252;8.904;2023-05-10T02:16:30;0.88;;;0.88;;
10637;SDS011;47007;49.252;8.904;2023-05-10T02:17:13;0.73;;;0.73;;
10637;SDS011;47007;49.252;8.904;2023-05-10T02:17:58;0.98;;;0.98;;
10637;SDS011;47007;49.252;8.904;2023-05-10T02:18:42;0.98;;;0.98;;
10637;SDS011;47007;49.252;8.904;2023-05-10T02:19:24;0.85;;;0.85;;
10637;SDS011;47007;49.252;8.904;2023-05-10T02:20:07;1.00;;;1.00;;
10637;SDS011;47007;49.252;8.904;2023-05-10T02:20:50;0.88;;;0.80;;
10637;SDS011;47007;49.252;8.904;2023-05-10T02:21:35;1.42;;;1.00;;
10637;SDS011;47007;49.252;8.904;2023-05-10T02:22:18;0.90;;;0.90;;
10637;SDS011;47007;49.252;8.904;2023-05-10T02:23:01;0.90;;;0.90;;
10637;SDS011;47007;49.252;8.904;2023-05-10T02:23:45;1.08;;;0.95;;
10637;SDS011;47007;49.252;8.904;2023-05-10T02:24:33;1.20;;;0.95;;
10637;SDS011;47007;49.252;8.904;2023-05-10T02:25:16;0.90;;;0.90;;
10637;SDS011;47007;49.252;8.904;2023-05-10T02:26:01;1.00;;;1.00;;
10637;SDS011;47007;49.252;8.904;2023-05-10T02:26:45;1.02;;;1.02;;
10637;SDS011;47007;49.252;8.904;2023-05-10T02:27:30;0.95;;;0.95;;
10637;SDS011;47007;49.252;8.904;2023-05-10T02:28:13;0.82;;;0.82;;
10637;SDS011;47007;49.252;8.904;2023-05-10T02:28:56;1.30;;;0.80;;
10637;SDS011;47007;49.252;8.904;2023-05-10T02:29:39;3.30;;;0.93;;
10637;SDS011;47007;49.252;8.904;2023-05-10T02:30:22;1.00;;;0.98;;
10637;SDS011;47007;49.252;8.904;2023-05-10T02:31:05;1.27;;;0.80;;
10637;SDS011;47007;49.252;8.904;2023-05-10T02:31:47;0.90;;;0.90;;
10637;SDS011;47007;49.252;8.904;2023-05-10T02:32:31;0.95;;;0.90;;
10637;SDS011;47007;49.252;8.904;2023-05-10T02:33:15;0.75;;;0.70;;
10637;SDS011;47007;49.252;8.904;2023-05-10T02:33:59;1.10;;;1.00;;
10637;SDS011;47007;49.252;8.904;2023-05-10T02:34:42;1.08;;;1.05;;
10637;SDS011;47007;49.252;8.904;2023-05-10T02:35:27;1.70;;;1.10;;
10637;SDS011;47007;49.252;8.904;2023-05-10T02:36:09;1.10;;;1.10;;
10637;SDS011;47007;49.252;8.904;2023-05-10T02:36:53;1.10;;;1.10;;
10637;SDS011;47007;49.252;8.904;2023-05-10T02:37:37;1.10;;;1.10;;
10637;SDS011;47007;49.252;8.904;2023-05-10T02:38:22;1.05;;;1.05;;
10637;SDS011;47007;49.252;8.904;2023-05-10T02:39:06;1.85;;;1.02;;
10637;SDS011;47007;49.252;8.904;2023-05-10T02:39:54;1.33;;;1.23;;
10637;SDS011;47007;49.252;8.904;2023-05-10T02:40:37;1.50;;;1.40;;
10637;SDS011;47007;49.252;8.904;2023-05-10T02:41:22;2.95;;;1.50;;
10637;SDS011;47007;49.252;8.904;2023-05-10T02:42:05;1.40;;;1.40;;
10637;SDS011;47007;49.252;8.904;2023-05-10T02:42:47;1.45;;;1.45;;
10637;SDS011;47007;49.252;8.904;2023-05-10T02:43:32;1.40;;;1.40;;
10637;SDS011;47007;49.252;8.904;2023-05-10T02:44:15;1.80;;;1.70;;
10637;SDS011;47007;49.252;8.904;2023-05-10T02:45:01;1.98;;;1.88;;
10637;SDS011;47007;49.252;8.904;2023-05-10T02:45:47;1.95;;;1.88;;
10637;SDS011;47007;49.252;8.904;2023-05-10T02:46:29;1.70;;;1.70;;
10637;SDS011;47007;49.252;8.904;2023-05-10T02:47:11;2.00;;;1.80;;
10637;SDS011;47007;49.252;8.904;2023-05-10T02:47:53;2.17;;;1.98;;
10637;SDS011;47007;49.252;8.904;2023-05-10T02:48:35;2.20;;;2.10;;
10637;SDS011;47007;49.252;8.904;2023-05-10T02:49:20;2.00;;;1.90;;
10637;SDS011;47007;49.252;8.904;2023-05-10T02:50:02;1.90;;;1.80;;
10637;SDS011;47007;49.252;8.904;2023-05-10T02:50:45;1.95;;;1.85;;
10637;SDS011;47007;49.252;8.904;2023-05-10T02:51:34;1.90;;;1.80;;
10637;SDS011;47007;49.252;8.904;2023-05-10T02:52:19;1.80;;;1.80;;
10637;SDS011;47007;49.252;8.904;2023-05-10T02:53:06;1.90;;;1.90;;
10637;SDS011;47007;49.252;8.904;2023-05-10T02:53:53;2.05;;;2.05;;
10637;SDS011;47007;49.252;8.904;2023-05-10T02:54:48;1.80;;;1.70;;
10637;SDS011;47007;49.252;8.904;2023-05-10T02:55:32;2.17;;;2.08;;
10637;SDS011;47007;49.252;8.904;2023-05-10T02:56:23;1.70;;;1.70;;
10637;SDS011;47007;49.252;8.904;2023-05-10T02:57:11;1.63;;;1.63;;
10637;SDS011;47007;49.252;8.904;2023-05-10T02:58:00;1.88;;;1.88;;
10637;SDS011;47007;49.252;8.904;2023-05-10T02:58:43;2.00;;;1.98;;
10637;SDS011;47007;49.252;8.904;2023-05-10T02:59:24;1.65;;;1.65;;
10637;SDS011;47007;49.252;8.904;2023-05-10T03:00:06;1.85;;;1.60;;
10637;SDS011;47007;49.252;8.904;2023-05-10T03:00:48;2.22;;;1.85;;
10637;SDS011;47007;49.252;8.904;2023-05-10T03:01:30;1.60;;;1.60;;
10637;SDS011;47007;49.252;8.904;2023-05-10T03:02:12;1.80;;;1.80;;
10637;SDS011;47007;49.252;8.904;2023-05-10T03:02:54;1.90;;;1.75;;
10637;SDS011;47007;49.252;8.904;2023-05-10T03:03:36;1.77;;;1.75;;
10637;SDS011;47007;49.252;8.904;2023-05-10T03:04:18;1.27;;;1.20;;
10637;SDS011;47007;49.252;8.904;2023-05-10T03:05:00;3.25;;;1.17;;
10637;SDS011;47007;49.252;8.904;2023-05-10T03:05:42;1.55;;;1.55;;
10637;SDS011;47007;49.252;8.904;2023-05-10T03:06:24;2.00;;;1.98;;
10637;SDS011;47007;49.252;8.904;2023-05-10T03:07:06;1.70;;;1.60;;
10637;SDS011;47007;49.252;8.904;2023-05-10T03:07:49;1.30;;;1.30;;
10637;SDS011;47007;49.252;8.904;2023-05-10T03:08:32;1.48;;;1.38;;
10637;SDS011;47007;49.252;8.904;2023-05-10T03:09:14;1.83;;;1.70;;
10637;SDS011;47007;49.252;8.904;2023-05-10T03:09:56;1.92;;;1.83;;
10637;SDS011;47007;49.252;8.904;2023-05-10T03:13:21;1.60;;;1.50;;
10637;SDS011;47007;49.252;8.904;2023-05-10T03:15:37;1.75;;;1.50;;
10637;SDS011;47007;49.252;8.904;2023-05-10T03:16:27;1.55;;;1.40;;
10637;SDS011;47007;49.252;8.904;2023-05-10T03:18:15;2.13;;;1.92;;
10637;SDS011;47007;49.252;8.904;2023-05-10T03:19:27;3.45;;;2.10;;
10637;SDS011;47007;49.252;8.904;2023-05-10T03:20:25;1.73;;;1.63;;
10637;SDS011;47007;49.252;8.904;2023-05-10T03:21:11;2.03;;;1.92;;
10637;SDS011;47007;49.252;8.904;2023-05-10T03:21:56;2.13;;;2.03;;
10637;SDS011;47007;49.252;8.904;2023-05-10T03:22:45;2.47;;;2.35;;
10637;SDS011;47007;49.252;8.904;2023-05-10T03:23:34;2.42;;;2.33;;
10637;SDS011;47007;49.252;8.904;2023-05-10T03:24:22;2.50;;;2.40;;
10637;SDS011;47007;49.252;8.904;2023-05-10T03:25:07;3.03;;;2.92;;
10637;SDS011;47007;49.252;8.904;2023-05-10T03:25:53;3.30;;;3.10;;
10637;SDS011;47007;49.252;8.904;2023-05-10T03:26:35;3.15;;;2.95;;
10637;SDS011;47007;49.252;8.904;2023-05-10T03:27:25;3.05;;;2.95;;
10637;SDS011;47007;49.252;8.904;2023-05-10T03:28:09;3.38;;;3.28;;
10637;SDS011;47007;49.252;8.904;2023-05-10T03:28:51;3.13;;;3.00;;
10637;SDS011;47007;49.252;8.904;2023-05-10T03:29:34;3.13;;;3.03;;
10637;SDS011;47007;49.252;8.904;2023-05-10T03:30:17;3.38;;;3.17;;
10637;SDS011;47007;49.252;8.904;2023-05-10T03:31:01;2.47;;;2.38;;
10637;SDS011;47007;49.252;8.904;2023-05-10T03:31:46;2.90;;;2.80;;
10637;SDS011;47007;49.252;8.904;2023-05-10T03:32:29;3.30;;;3.05;;
10637;SDS011;47007;49.252;8.904;2023-05-10T03:33:13;3.30;;;3.10;;
10637;SDS011;47007;49.252;8.904;2023-05-10T03:33:58;3.10;;;3.00;;
10637;SDS011;47007;49.252;8.904;2023-05-10T03:34:41;3.67;;;3.47;;
10637;SDS011;47007;49.252;8.904;2023-05-10T03:35:24;3.10;;;2.90;;
10637;SDS011;47007;49.252;8.904;2023-05-10T03:36:06;3.50;;;3.30;;
10637;SDS011;47007;49.252;8.904;2023-05-10T03:36:48;3.30;;;3.20;;
10637;SDS011;47007;49.252;8.904;2023-05-10T03:37:29;4.07;;;3.85;;
10637;SDS011;47007;49.252;8.904;2023-05-10T03:38:12;3.92;;;3.67;;
10637;SDS011;47007;49.252;8.904;2023-05-10T03:38:54;4.22;;;3.83;;
10637;SDS011;47007;49.252;8.904;2023-05-10T03:39:38;3.47;;;3.28;;
10637;SDS011;47007;49.252;8.904;2023-05-10T03:40:23;3.70;;;3.50;;
10637;SDS011;47007;49.252;8.904;2023-05-10T03:41:05;3.83;;;3.63;;
10637;SDS011;47007;49.252;8.904;2023-05-10T03:41:47;4.25;;;3.58;;
10637;SDS011;47007;49.252;8.904;2023-05-10T03:42:28;3.75;;;3.53;;
10637;SDS011;47007;49.252;8.904;2023-05-10T03:43:10;3.13;;;3.03;;
10637;SDS011;47007;49.252;8.904;2023-05-10T03:43:52;3.90;;;3.70;;
10637;SDS011;47007;49.252;8.904;2023-05-10T03:44:34;4.03;;;3.72;;
10637;SDS011;47007;49.252;8.904;2023-05-10T03:45:15;4.00;;;3.80;;
10637;SDS011;47007;49.252;8.904;2023-05-10T03:45:57;4.18;;;3.80;;
10637;SDS011;47007;49.252;8.904;2023-05-10T03:46:39;4.50;;;4.13;;
10637;SDS011;47007;49.252;8.904;2023-05-10T03:47:20;4.40;;;4.20;;
10637;SDS011;47007;49.252;8.904;2023-05-10T03:48:02;4.38;;;4.15;;
10637;SDS011;47007;49.252;8.904;2023-05-10T03:48:44;4.63;;;4.10;;
10637;SDS011;47007;49.252;8.904;2023-05-10T03:49:26;4.30;;;4.10;;
10637;SDS011;47007;49.252;8.904;2023-05-10T03:50:08;4.70;;;4.50;;
10637;SDS011;47007;49.252;8.904;2023-05-10T03:50:51;3.80;;;3.60;;
10637;SDS011;47007;49.252;8.904;2023-05-10T03:51:33;4.13;;;3.92;;
10637;SDS011;47007;49.252;8.904;2023-05-10T03:52:14;3.63;;;3.42;;
10637;SDS011;47007;49.252;8.904;2023-05-10T03:52:56;4.85;;;3.95;;
10637;SDS011;47007;49.252;8.904;2023-05-10T03:53:38;3.53;;;3.42;;
10637;SDS011;47007;49.252;8.904;2023-05-10T03:54:20;3.35;;;3.15;;
10637;SDS011;47007;49.252;8.904;2023-05-10T03:55:02;3.75;;;3.47;;
10637;SDS011;47007;49.252;8.904;2023-05-10T03:55:45;3.58;;;3.47;;
10637;SDS011;47007;49.252;8.904;2023-05-10T03:56:27;3.10;;;2.90;;
10637;SDS011;47007;49.252;8.904;2023-05-10T03:57:08;3.45;;;3.25;;
10637;SDS011;47007;49.252;8.904;2023-05-10T03:57:50;3.10;;;2.90;;
10637;SDS011;47007;49.252;8.904;2023-05-10T03:58:32;3.70;;;3.40;;
10637;SDS011;47007;49.252;8.904;2023-05-10T03:59:14;3.25;;;3.15;;
10637;SDS011;47007;49.252;8.904;2023-05-10T03:59:56;3.28;;;3.08;;
10637;SDS011;47007;49.252;8.904;2023-05-10T04:00:37;3.22;;;3.03;;
10637;SDS011;47007;49.252;8.904;2023-05-10T04:01:25;3.03;;;2.80;;
10637;SDS011;47007;49.252;8.904;2023-05-10T04:02:06;3.13;;;2.92;;
10637;SDS011;47007;49.252;8.904;2023-05-10T04:02:50;3.03;;;2.92;;
10637;SDS011;47007;49.252;8.904;2023-05-10T04:03:33;3.40;;;3.20;;
10637;SDS011;47007;49.252;8.904;2023-05-10T04:04:18;3.20;;;3.08;;
10637;SDS011;47007;49.252;8.904;2023-05-10T04:05:03;3.13;;;2.97;;
10637;SDS011;47007;49.252;8.904;2023-05-10T04:05:45;3.05;;;2.90;;
10637;SDS011;47007;49.252;8.904;2023-05-10T04:06:26;3.05;;;2.80;;
10637;SDS011;47007;49.252;8.904;2023-05-10T04:07:09;2.60;;;2.50;;
10637;SDS011;47007;49.252;8.904;2023-05-10T04:07:51;2.42;;;2.22;;
10637;SDS011;47007;49.252;8.904;2023-05-10T04:08:33;2.58;;;2.47;;
10637;SDS011;47007;49.252;8.904;2023-05-10T04:09:15;2.58;;;2.47;;
10637;SDS011;47007;49.252;8.904;2023-05-10T04:09:57;2.70;;;2.53;;
10637;SDS011;47007;49.252;8.904;2023-05-10T04:10:39;2.97;;;2.83;;
10637;SDS011;47007;49.252;8.904;2023-05-10T04:11:21;6.00;;;2.20;;
10637;SDS011;47007;49.252;8.904;2023-05-10T04:12:03;2.50;;;2.30;;
10637;SDS011;47007;49.252;8.904;2023-05-10T04:12:45;2.22;;;2.05;;
10637;SDS011;47007;49.252;8.904;2023-05-10T04:13:26;2.30;;;2.20;;
10637;SDS011;47007;49.252;8.904;2023-05-10T04:14:08;3.20;;;2.20;;
10637;SDS011;47007;49.252;8.904;2023-05-10T04:14:50;2.10;;;2.00;;
10637;SDS011;47007;49.252;8.904;2023-05-10T04:15:32;2.25;;;2.15;;
10637;SDS011;47007;49.252;8.904;2023-05-10T04:16:14;3.90;;;2.13;;
10637;SDS011;47007;49.252;8.904;2023-05-10T04:16:55;2.00;;;1.92;;
10637;SDS011;47007;49.252;8.904;2023-05-10T04:17:37;2.20;;;2.10;;
10637;SDS011;47007;49.252;8.904;2023-05-10T04:18:19;2.13;;;2.03;;
10637;SDS011;47007;49.252;8.904;2023-05-10T04:19:01;2.45;;;2.28;;
10637;SDS011;47007;49.252;8.904;2023-05-10T04:19:42;2.45;;;2.35;;
10637;SDS011;47007;49.252;8.904;2023-05-10T04:20:24;2.47;;;2.38;;
10637;SDS011;47007;49.252;8.904;2023-05-10T04:21:10;2.05;;;1.95;;
10637;SDS011;47007;49.252;8.904;2023-05-10T04:21:53;2.13;;;2.03;;
10637;SDS011;47007;49.252;8.904;2023-05-10T04:22:35;2.33;;;2.22;;
10637;SDS011;47007;49.252;8.904;2023-05-10T04:23:17;2.20;;;2.10;;
10637;SDS011;47007;49.252;8.904;2023-05-10T04:23:58;2.10;;;2.00;;
10637;SDS011;47007;49.252;8.904;2023-05-10T04:24:40;2.40;;;2.10;;
10637;SDS011;47007;49.252;8.904;2023-05-10T04:25:22;2.20;;;2.10;;
10637;SDS011;47007;49.252;8.904;2023-05-10T04:26:03;3.00;;;2.85;;
10637;SDS011;47007;49.252;8.904;2023-05-10T04:26:45;3.22;;;3.03;;
10637;SDS011;47007;49.252;8.904;2023-05-10T04:27:27;2.90;;;2.80;;
10637;SDS011;47007;49.252;8.904;2023-05-10T04:28:08;2.42;;;2.30;;
10637;SDS011;47007;49.252;8.904;2023-05-10T04:28:50;2.35;;;2.25;;
10637;SDS011;47007;49.252;8.904;2023-05-10T04:29:32;2.35;;;2.25;;
10637;SDS011;47007;49.252;8.904;2023-05-10T04:30:14;2.72;;;2.55;;
10637;SDS011;47007;49.252;8.904;2023-05-10T04:31:05;2.47;;;2.38;;
10637;SDS011;47007;49.252;8.904;2023-05-10T04:31:48;2.50;;;2.40;;
10637;SDS011;47007;49.252;8.904;2023-05-10T04:32:30;2.42;;;2.33;;
10637;SDS011;47007;49.252;8.904;2023-05-10T04:33:12;2.38;;;2.20;;
10637;SDS011;47007;49.252;8.904;2023-05-10T04:33:54;2.30;;;2.20;;
10637;SDS011;47007;49.252;8.904;2023-05-10T04:34:36;2.60;;;2.40;;
10637;SDS011;47007;49.252;8.904;2023-05-10T04:35:18;2.35;;;2.10;;
10637;SDS011;47007;49.252;8.904;2023-05-10T04:36:00;2.55;;;2.40;;
10637;SDS011;47007;49.252;8.904;2023-05-10T04:36:42;2.80;;;2.60;;
10637;SDS011;47007;49.252;8.904;2023-05-10T04:37:24;2.40;;;2.20;;
10637;SDS011;47007;49.252;8.904;2023-05-10T04:38:06;2.38;;;2.28;;
10637;SDS011;47007;49.252;8.904;2023-05-10T04:38:47;2.78;;;2.33;;
10637;SDS011;47007;49.252;8.904;2023-05-10T04:39:29;2.60;;;2.40;;
10637;SDS011;47007;49.252;8.904;2023-05-10T04:40:11;2.92;;;2.72;;
10637;SDS011;47007;49.252;8.904;2023-05-10T04:40:53;2.53;;;2.35;;
10637;SDS011;47007;49.252;8.904;2023-05-10T04:41:35;2.40;;;2.20;;
10637;SDS011;47007;49.252;8.904;2023-05-10T04:42:18;3.42;;;2.10;;
10637;SDS011;47007;49.252;8.904;2023-05-10T04:43:00;2.22;;;2.03;;